Kingston Norman Rogers Airport
CYGK : rendu visible

Aérodrome :











RETROUVEZ-NOUS SUR...

 
LOGIN :

S'inscrire | Disclaimer

   EN    FR    IT 

 









Légende :    VFR   VFR Marginal   IFR   IFR Intensif   IFR Très Intensif
Visi : 
Plafond : 
>= 8 km
>= 3000ft
5 à 8 km
1000 à 3000 ft
1500m à 5 km
500 à 1000 ft
800 à 1500m
200 à 500 ft
< 800m
< 200 ft
Symboles :   Orages  Brouillard  Fortes neiges  Fortes précipitations  Vent > 20 kt






- Altitude de l'aérodrome : 305 ft
- Code IATA : YGK


CYGK - Kingston Norman Rogers

DERNIER METAR :
  • 082300Z 17008KT 15SM FEW050TCU FEW160 FEW250 27/22 A2986 RMK TCU1AC1CI1 AC TR SLP112 DENSITY ALT 1800FT

METARs EXPIRÉS :
  • 082200Z 19011KT 15SM FEW050TCU FEW160 SCT250 28/21 A2987 RMK TCU1AC1CI1 SLP114 DENSITY ALT 1900FT
  • 082100Z 20011G18KT 15SM VCSH SCT050TCU SCT250 28/21 A2987 RMK TCU3CI1 SLP117 DENSITY ALT 1900FT

TAF TAF CYGK
Valide du 08 à 20h jusqu'au 09 à 03h UTC


081943Z 0820/0903 18012KT P6SM SCT040
TEMPO 0820/0824 4SM -SHRA BR
PROB30 0820/0822 2SM +TSRA BR OVC030CB RMK NXT FCST WILL BE ISSUED AT 091145Z
FIR CZYZ / Amérique du Nord



MET'MAP, la Météo Aéronautique d'un coup d'oeil ! - Copyright ORBIFLY Décembre 2007 - Disclaimer

ORBIFLY MET'MAP TEAM :

Programmation & Développement : Alexandra Zaïnal
Sur une idée originale de : Baudouin d'Aumeries
Assistance à la programmation : Marc-Olivier Méhu
Soutien technique & logistique : Manuel Goepfert

Contact : metmap@orbifly.com




SOURCES & CREDITS :

   NOAA       Earth
Advisory